sensor_id;sensor_type;location;lat;lon;timestamp;P1;durP1;ratioP1;P2;durP2;ratioP2
57635;SDS011;43465;50.728;4.160;2022-08-18T00:02:15;77.22;;;61.53;;
57635;SDS011;43465;50.728;4.160;2022-08-18T00:04:44;79.00;;;61.30;;
57635;SDS011;43465;50.728;4.160;2022-08-18T00:07:30;72.72;;;59.40;;
57635;SDS011;43465;50.728;4.160;2022-08-18T00:09:57;74.13;;;60.47;;
57635;SDS011;43465;50.728;4.160;2022-08-18T00:14:55;76.00;;;60.42;;
57635;SDS011;43465;50.728;4.160;2022-08-18T00:17:21;75.53;;;59.80;;
57635;SDS011;43465;50.728;4.160;2022-08-18T00:19:48;72.88;;;60.13;;
57635;SDS011;43465;50.728;4.160;2022-08-18T00:22:18;80.03;;;62.28;;
57635;SDS011;43465;50.728;4.160;2022-08-18T00:24:45;75.82;;;62.58;;
57635;SDS011;43465;50.728;4.160;2022-08-18T00:27:13;81.35;;;64.35;;
57635;SDS011;43465;50.728;4.160;2022-08-18T00:29:41;76.57;;;61.67;;
57635;SDS011;43465;50.728;4.160;2022-08-18T00:32:17;74.93;;;60.10;;
57635;SDS011;43465;50.728;4.160;2022-08-18T00:34:48;83.95;;;64.93;;
57635;SDS011;43465;50.728;4.160;2022-08-18T00:37:15;86.80;;;69.35;;
57635;SDS011;43465;50.728;4.160;2022-08-18T00:39:40;86.90;;;66.65;;
57635;SDS011;43465;50.728;4.160;2022-08-18T00:42:17;86.82;;;66.30;;
57635;SDS011;43465;50.728;4.160;2022-08-18T00:44:45;88.90;;;66.80;;
57635;SDS011;43465;50.728;4.160;2022-08-18T00:47:11;95.10;;;70.50;;
57635;SDS011;43465;50.728;4.160;2022-08-18T00:49:37;107.32;;;71.53;;
57635;SDS011;43465;50.728;4.160;2022-08-18T00:52:06;209.63;;;71.97;;
57635;SDS011;43465;50.728;4.160;2022-08-18T00:54:33;212.40;;;73.00;;
57635;SDS011;43465;50.728;4.160;2022-08-18T00:57:02;133.70;;;71.88;;
57635;SDS011;43465;50.728;4.160;2022-08-18T00:59:41;109.18;;;72.95;;
57635;SDS011;43465;50.728;4.160;2022-08-18T01:02:28;136.13;;;75.18;;
57635;SDS011;43465;50.728;4.160;2022-08-18T01:05:00;98.78;;;70.43;;
57635;SDS011;43465;50.728;4.160;2022-08-18T01:07:33;159.70;;;77.95;;
57635;SDS011;43465;50.728;4.160;2022-08-18T01:10:04;105.97;;;75.15;;
57635;SDS011;43465;50.728;4.160;2022-08-18T01:12:31;119.13;;;75.80;;
57635;SDS011;43465;50.728;4.160;2022-08-18T01:14:57;142.77;;;77.50;;
57635;SDS011;43465;50.728;4.160;2022-08-18T01:17:23;189.07;;;80.05;;
57635;SDS011;43465;50.728;4.160;2022-08-18T01:20:14;339.65;;;73.15;;
57635;SDS011;43465;50.728;4.160;2022-08-18T01:23:14;187.18;;;77.05;;
57635;SDS011;43465;50.728;4.160;2022-08-18T01:25:43;279.70;;;70.30;;
57635;SDS011;43465;50.728;4.160;2022-08-18T01:28:35;169.30;;;78.30;;
57635;SDS011;43465;50.728;4.160;2022-08-18T01:31:02;236.00;;;76.32;;
57635;SDS011;43465;50.728;4.160;2022-08-18T01:33:31;211.57;;;74.07;;
57635;SDS011;43465;50.728;4.160;2022-08-18T01:36:08;125.93;;;74.63;;
57635;SDS011;43465;50.728;4.160;2022-08-18T01:38:40;104.13;;;71.97;;
57635;SDS011;43465;50.728;4.160;2022-08-18T01:41:09;145.27;;;75.50;;
57635;SDS011;43465;50.728;4.160;2022-08-18T01:43:35;122.63;;;73.50;;
57635;SDS011;43465;50.728;4.160;2022-08-18T01:46:02;109.88;;;69.70;;
57635;SDS011;43465;50.728;4.160;2022-08-18T01:48:29;135.40;;;73.65;;
57635;SDS011;43465;50.728;4.160;2022-08-18T01:50:58;158.45;;;69.68;;
57635;SDS011;43465;50.728;4.160;2022-08-18T01:53:25;95.10;;;67.07;;
57635;SDS011;43465;50.728;4.160;2022-08-18T01:55:51;116.10;;;67.95;;
57635;SDS011;43465;50.728;4.160;2022-08-18T01:58:19;154.95;;;66.57;;
57635;SDS011;43465;50.728;4.160;2022-08-18T02:00:49;124.30;;;65.38;;
57635;SDS011;43465;50.728;4.160;2022-08-18T02:03:14;153.60;;;69.05;;
57635;SDS011;43465;50.728;4.160;2022-08-18T02:05:42;130.57;;;66.30;;
57635;SDS011;43465;50.728;4.160;2022-08-18T02:08:11;132.15;;;66.38;;
57635;SDS011;43465;50.728;4.160;2022-08-18T02:10:37;116.85;;;66.63;;
57635;SDS011;43465;50.728;4.160;2022-08-18T02:13:04;127.63;;;64.70;;
57635;SDS011;43465;50.728;4.160;2022-08-18T02:15:30;131.13;;;67.88;;
57635;SDS011;43465;50.728;4.160;2022-08-18T02:17:56;141.73;;;71.40;;
57635;SDS011;43465;50.728;4.160;2022-08-18T02:20:22;134.23;;;72.75;;
57635;SDS011;43465;50.728;4.160;2022-08-18T02:22:48;163.50;;;72.60;;
57635;SDS011;43465;50.728;4.160;2022-08-18T02:25:14;157.50;;;74.35;;
57635;SDS011;43465;50.728;4.160;2022-08-18T02:27:42;158.63;;;77.18;;
57635;SDS011;43465;50.728;4.160;2022-08-18T02:30:09;146.85;;;75.50;;
57635;SDS011;43465;50.728;4.160;2022-08-18T02:32:37;194.30;;;73.72;;
57635;SDS011;43465;50.728;4.160;2022-08-18T02:35:04;183.68;;;71.60;;
57635;SDS011;43465;50.728;4.160;2022-08-18T02:37:31;202.00;;;73.95;;
57635;SDS011;43465;50.728;4.160;2022-08-18T02:39:57;173.88;;;75.00;;
57635;SDS011;43465;50.728;4.160;2022-08-18T02:42:22;220.05;;;75.47;;
57635;SDS011;43465;50.728;4.160;2022-08-18T02:44:48;124.25;;;71.70;;
57635;SDS011;43465;50.728;4.160;2022-08-18T02:47:14;188.65;;;76.60;;
57635;SDS011;43465;50.728;4.160;2022-08-18T02:49:46;168.75;;;74.30;;
57635;SDS011;43465;50.728;4.160;2022-08-18T02:52:12;189.88;;;73.43;;
57635;SDS011;43465;50.728;4.160;2022-08-18T02:54:37;209.15;;;71.72;;
57635;SDS011;43465;50.728;4.160;2022-08-18T02:57:07;152.38;;;74.18;;
57635;SDS011;43465;50.728;4.160;2022-08-18T02:59:37;177.50;;;71.10;;
57635;SDS011;43465;50.728;4.160;2022-08-18T03:02:04;215.00;;;71.63;;
57635;SDS011;43465;50.728;4.160;2022-08-18T03:04:33;224.52;;;71.60;;
57635;SDS011;43465;50.728;4.160;2022-08-18T03:07:00;212.18;;;74.25;;
57635;SDS011;43465;50.728;4.160;2022-08-18T03:09:29;374.90;;;72.53;;
57635;SDS011;43465;50.728;4.160;2022-08-18T03:11:55;254.60;;;74.55;;
57635;SDS011;43465;50.728;4.160;2022-08-18T03:14:22;299.88;;;76.03;;
57635;SDS011;43465;50.728;4.160;2022-08-18T03:16:49;337.40;;;74.85;;
57635;SDS011;43465;50.728;4.160;2022-08-18T03:19:15;311.30;;;73.45;;
57635;SDS011;43465;50.728;4.160;2022-08-18T03:21:42;465.88;;;73.00;;
57635;SDS011;43465;50.728;4.160;2022-08-18T03:24:09;203.23;;;72.53;;
57635;SDS011;43465;50.728;4.160;2022-08-18T03:26:38;187.38;;;70.75;;
57635;SDS011;43465;50.728;4.160;2022-08-18T03:29:08;344.77;;;69.95;;
57635;SDS011;43465;50.728;4.160;2022-08-18T03:31:34;247.15;;;61.33;;
57635;SDS011;43465;50.728;4.160;2022-08-18T03:34:02;165.13;;;63.85;;
57635;SDS011;43465;50.728;4.160;2022-08-18T03:36:29;106.40;;;57.00;;
57635;SDS011;43465;50.728;4.160;2022-08-18T03:38:56;210.07;;;56.47;;
57635;SDS011;43465;50.728;4.160;2022-08-18T03:41:23;196.57;;;54.58;;
57635;SDS011;43465;50.728;4.160;2022-08-18T03:43:50;262.60;;;52.90;;
57635;SDS011;43465;50.728;4.160;2022-08-18T03:46:17;130.27;;;52.30;;
57635;SDS011;43465;50.728;4.160;2022-08-18T03:48:44;147.38;;;52.80;;
57635;SDS011;43465;50.728;4.160;2022-08-18T03:51:15;216.32;;;51.15;;
57635;SDS011;43465;50.728;4.160;2022-08-18T03:53:44;222.50;;;51.25;;
57635;SDS011;43465;50.728;4.160;2022-08-18T03:56:13;79.72;;;50.15;;
57635;SDS011;43465;50.728;4.160;2022-08-18T03:58:46;137.90;;;52.53;;
57635;SDS011;43465;50.728;4.160;2022-08-18T04:01:14;171.95;;;51.03;;
57635;SDS011;43465;50.728;4.160;2022-08-18T04:03:43;177.30;;;52.30;;
57635;SDS011;43465;50.728;4.160;2022-08-18T04:06:19;145.00;;;52.80;;
57635;SDS011;43465;50.728;4.160;2022-08-18T04:08:52;80.15;;;52.38;;
57635;SDS011;43465;50.728;4.160;2022-08-18T04:11:19;183.15;;;55.58;;
57635;SDS011;43465;50.728;4.160;2022-08-18T04:13:45;221.43;;;55.67;;
57635;SDS011;43465;50.728;4.160;2022-08-18T04:16:11;99.88;;;53.00;;
57635;SDS011;43465;50.728;4.160;2022-08-18T04:18:37;163.95;;;54.92;;
57635;SDS011;43465;50.728;4.160;2022-08-18T04:21:03;197.75;;;57.88;;
57635;SDS011;43465;50.728;4.160;2022-08-18T04:23:34;165.25;;;57.10;;
57635;SDS011;43465;50.728;4.160;2022-08-18T04:26:01;110.80;;;54.85;;
57635;SDS011;43465;50.728;4.160;2022-08-18T04:28:27;165.15;;;55.80;;
57635;SDS011;43465;50.728;4.160;2022-08-18T04:30:54;190.60;;;55.15;;
57635;SDS011;43465;50.728;4.160;2022-08-18T04:33:26;113.13;;;52.38;;
57635;SDS011;43465;50.728;4.160;2022-08-18T04:35:53;148.35;;;53.92;;
57635;SDS011;43465;50.728;4.160;2022-08-18T04:38:20;116.53;;;53.67;;
57635;SDS011;43465;50.728;4.160;2022-08-18T04:40:47;129.73;;;55.33;;
57635;SDS011;43465;50.728;4.160;2022-08-18T04:43:13;118.15;;;52.75;;
57635;SDS011;43465;50.728;4.160;2022-08-18T04:45:46;102.28;;;55.88;;
57635;SDS011;43465;50.728;4.160;2022-08-18T04:48:12;102.75;;;54.08;;
57635;SDS011;43465;50.728;4.160;2022-08-18T04:50:40;112.38;;;54.25;;
57635;SDS011;43465;50.728;4.160;2022-08-18T04:53:06;87.60;;;53.75;;
57635;SDS011;43465;50.728;4.160;2022-08-18T04:55:51;97.30;;;52.20;;
57635;SDS011;43465;50.728;4.160;2022-08-18T04:58:19;103.45;;;57.25;;
57635;SDS011;43465;50.728;4.160;2022-08-18T05:01:05;94.97;;;57.90;;
57635;SDS011;43465;50.728;4.160;2022-08-18T05:03:33;117.95;;;57.38;;
57635;SDS011;43465;50.728;4.160;2022-08-18T05:06:02;104.20;;;59.70;;
57635;SDS011;43465;50.728;4.160;2022-08-18T05:08:29;107.40;;;56.03;;
57635;SDS011;43465;50.728;4.160;2022-08-18T05:10:55;162.02;;;58.20;;
57635;SDS011;43465;50.728;4.160;2022-08-18T05:13:24;160.85;;;58.47;;
57635;SDS011;43465;50.728;4.160;2022-08-18T05:15:56;108.47;;;56.30;;
57635;SDS011;43465;50.728;4.160;2022-08-18T05:18:31;268.75;;;59.25;;
57635;SDS011;43465;50.728;4.160;2022-08-18T05:20:58;182.40;;;58.30;;
57635;SDS011;43465;50.728;4.160;2022-08-18T05:23:24;116.72;;;57.10;;
57635;SDS011;43465;50.728;4.160;2022-08-18T05:25:55;373.35;;;58.83;;
57635;SDS011;43465;50.728;4.160;2022-08-18T05:28:22;234.70;;;58.50;;
57635;SDS011;43465;50.728;4.160;2022-08-18T05:30:48;150.40;;;56.38;;
57635;SDS011;43465;50.728;4.160;2022-08-18T05:33:13;106.47;;;56.67;;
57635;SDS011;43465;50.728;4.160;2022-08-18T05:35:47;245.07;;;56.65;;
57635;SDS011;43465;50.728;4.160;2022-08-18T05:38:27;146.30;;;54.08;;
57635;SDS011;43465;50.728;4.160;2022-08-18T05:41:11;113.05;;;55.58;;
57635;SDS011;43465;50.728;4.160;2022-08-18T05:43:50;354.20;;;55.90;;
57635;SDS011;43465;50.728;4.160;2022-08-18T05:46:16;132.88;;;56.55;;
57635;SDS011;43465;50.728;4.160;2022-08-18T05:48:41;121.50;;;53.65;;
57635;SDS011;43465;50.728;4.160;2022-08-18T05:51:13;362.60;;;55.33;;
57635;SDS011;43465;50.728;4.160;2022-08-18T05:53:44;67.53;;;48.33;;
57635;SDS011;43465;50.728;4.160;2022-08-18T05:56:31;108.68;;;53.30;;
57635;SDS011;43465;50.728;4.160;2022-08-18T06:02:29;184.48;;;57.97;;
57635;SDS011;43465;50.728;4.160;2022-08-18T06:05:00;187.25;;;57.95;;
57635;SDS011;43465;50.728;4.160;2022-08-18T06:07:39;134.82;;;54.70;;
57635;SDS011;43465;50.728;4.160;2022-08-18T06:10:13;202.45;;;56.58;;
57635;SDS011;43465;50.728;4.160;2022-08-18T06:12:41;237.52;;;57.38;;
57635;SDS011;43465;50.728;4.160;2022-08-18T06:15:12;150.95;;;58.65;;
57635;SDS011;43465;50.728;4.160;2022-08-18T06:23:25;93.82;;;52.38;;
57635;SDS011;43465;50.728;4.160;2022-08-18T06:42:14;159.82;;;52.83;;
57635;SDS011;43465;50.728;4.160;2022-08-18T06:44:46;105.65;;;53.53;;
57635;SDS011;43465;50.728;4.160;2022-08-18T06:52:52;198.10;;;54.13;;
57635;SDS011;43465;50.728;4.160;2022-08-18T07:00:38;93.88;;;53.40;;
57635;SDS011;43465;50.728;4.160;2022-08-18T07:03:19;109.22;;;56.35;;
57635;SDS011;43465;50.728;4.160;2022-08-18T07:08:33;97.82;;;55.72;;
57635;SDS011;43465;50.728;4.160;2022-08-18T07:13:45;90.65;;;53.88;;
57635;SDS011;43465;50.728;4.160;2022-08-18T07:18:52;79.72;;;51.67;;
57635;SDS011;43465;50.728;4.160;2022-08-18T07:21:23;75.80;;;52.08;;
57635;SDS011;43465;50.728;4.160;2022-08-18T07:23:58;78.10;;;51.65;;
57635;SDS011;43465;50.728;4.160;2022-08-18T07:26:28;72.57;;;52.03;;
57635;SDS011;43465;50.728;4.160;2022-08-18T07:28:54;84.97;;;54.72;;
57635;SDS011;43465;50.728;4.160;2022-08-18T07:31:39;85.85;;;55.00;;
57635;SDS011;43465;50.728;4.160;2022-08-18T07:34:14;82.45;;;57.05;;
57635;SDS011;43465;50.728;4.160;2022-08-18T07:36:48;75.15;;;55.25;;
57635;SDS011;43465;50.728;4.160;2022-08-18T07:47:17;74.90;;;53.72;;
57635;SDS011;43465;50.728;4.160;2022-08-18T07:49:49;75.20;;;53.30;;
57635;SDS011;43465;50.728;4.160;2022-08-18T07:52:29;72.30;;;51.65;;
57635;SDS011;43465;50.728;4.160;2022-08-18T08:08:36;56.75;;;43.47;;
57635;SDS011;43465;50.728;4.160;2022-08-18T08:16:45;53.83;;;41.95;;
57635;SDS011;43465;50.728;4.160;2022-08-18T08:20:36;47.78;;;40.10;;
57635;SDS011;43465;50.728;4.160;2022-08-18T08:30:45;51.10;;;41.42;;
57635;SDS011;43465;50.728;4.160;2022-08-18T08:33:27;56.17;;;43.58;;
57635;SDS011;43465;50.728;4.160;2022-08-18T08:36:04;48.97;;;42.35;;
57635;SDS011;43465;50.728;4.160;2022-08-18T08:41:04;37.72;;;33.67;;
57635;SDS011;43465;50.728;4.160;2022-08-18T08:43:36;44.40;;;36.97;;
57635;SDS011;43465;50.728;4.160;2022-08-18T08:46:21;43.47;;;38.50;;
57635;SDS011;43465;50.728;4.160;2022-08-18T08:49:29;42.88;;;38.25;;
57635;SDS011;43465;50.728;4.160;2022-08-18T08:51:52;44.10;;;38.17;;
57635;SDS011;43465;50.728;4.160;2022-08-18T08:54:23;45.33;;;39.50;;
57635;SDS011;43465;50.728;4.160;2022-08-18T08:56:54;49.75;;;41.40;;
57635;SDS011;43465;50.728;4.160;2022-08-18T08:59:23;49.17;;;40.65;;
57635;SDS011;43465;50.728;4.160;2022-08-18T09:10:20;42.97;;;36.95;;
57635;SDS011;43465;50.728;4.160;2022-08-18T09:18:54;39.47;;;33.37;;
57635;SDS011;43465;50.728;4.160;2022-08-18T09:24:25;37.30;;;32.53;;
57635;SDS011;43465;50.728;4.160;2022-08-18T09:26:52;38.00;;;33.40;;
57635;SDS011;43465;50.728;4.160;2022-08-18T09:29:49;36.80;;;31.80;;
57635;SDS011;43465;50.728;4.160;2022-08-18T09:34:58;29.35;;;26.20;;
57635;SDS011;43465;50.728;4.160;2022-08-18T09:40:11;33.80;;;30.35;;
57635;SDS011;43465;50.728;4.160;2022-08-18T09:48:35;39.13;;;34.95;;
57635;SDS011;43465;50.728;4.160;2022-08-18T09:56:14;36.25;;;32.45;;
57635;SDS011;43465;50.728;4.160;2022-08-18T09:58:55;33.45;;;30.00;;
57635;SDS011;43465;50.728;4.160;2022-08-18T10:06:39;28.83;;;25.73;;
57635;SDS011;43465;50.728;4.160;2022-08-18T10:14:33;30.77;;;27.63;;
57635;SDS011;43465;50.728;4.160;2022-08-18T10:20:19;27.05;;;24.33;;
57635;SDS011;43465;50.728;4.160;2022-08-18T10:22:54;29.10;;;26.23;;
57635;SDS011;43465;50.728;4.160;2022-08-18T10:25:36;26.17;;;23.58;;
57635;SDS011;43465;50.728;4.160;2022-08-18T10:28:08;29.98;;;27.13;;
57635;SDS011;43465;50.728;4.160;2022-08-18T10:33:05;24.33;;;22.02;;
57635;SDS011;43465;50.728;4.160;2022-08-18T10:40:34;18.88;;;17.08;;
57635;SDS011;43465;50.728;4.160;2022-08-18T10:43:08;17.30;;;15.48;;
57635;SDS011;43465;50.728;4.160;2022-08-18T10:45:44;21.25;;;19.10;;
57635;SDS011;43465;50.728;4.160;2022-08-18T10:48:25;21.27;;;19.30;;
57635;SDS011;43465;50.728;4.160;2022-08-18T10:50:56;19.38;;;17.30;;
57635;SDS011;43465;50.728;4.160;2022-08-18T11:04:55;16.88;;;14.85;;
57635;SDS011;43465;50.728;4.160;2022-08-18T11:07:26;16.30;;;14.77;;
57635;SDS011;43465;50.728;4.160;2022-08-18T11:09:55;17.38;;;15.77;;
57635;SDS011;43465;50.728;4.160;2022-08-18T11:17:55;15.25;;;13.95;;
57635;SDS011;43465;50.728;4.160;2022-08-18T11:20:40;20.90;;;19.00;;
57635;SDS011;43465;50.728;4.160;2022-08-18T11:23:11;15.57;;;14.25;;
57635;SDS011;43465;50.728;4.160;2022-08-18T11:25:38;16.42;;;14.93;;
57635;SDS011;43465;50.728;4.160;2022-08-18T11:28:19;17.27;;;15.65;;
57635;SDS011;43465;50.728;4.160;2022-08-18T11:30:49;16.42;;;15.13;;
57635;SDS011;43465;50.728;4.160;2022-08-18T11:33:18;18.15;;;16.60;;
57635;SDS011;43465;50.728;4.160;2022-08-18T11:38:14;13.82;;;12.73;;
57635;SDS011;43465;50.728;4.160;2022-08-18T11:40:47;20.25;;;18.40;;
57635;SDS011;43465;50.728;4.160;2022-08-18T11:43:26;24.77;;;22.67;;
57635;SDS011;43465;50.728;4.160;2022-08-18T11:46:00;24.80;;;22.60;;
57635;SDS011;43465;50.728;4.160;2022-08-18T11:51:15;23.83;;;21.77;;
57635;SDS011;43465;50.728;4.160;2022-08-18T12:07:05;19.40;;;17.75;;
57635;SDS011;43465;50.728;4.160;2022-08-18T12:12:45;18.48;;;16.95;;
57635;SDS011;43465;50.728;4.160;2022-08-18T12:17:40;16.33;;;15.07;;
57635;SDS011;43465;50.728;4.160;2022-08-18T12:20:08;17.98;;;16.35;;
57635;SDS011;43465;50.728;4.160;2022-08-18T12:22:39;18.15;;;16.63;;
57635;SDS011;43465;50.728;4.160;2022-08-18T12:25:07;16.35;;;15.05;;
57635;SDS011;43465;50.728;4.160;2022-08-18T12:27:35;17.85;;;16.45;;
57635;SDS011;43465;50.728;4.160;2022-08-18T12:30:00;16.58;;;15.38;;
57635;SDS011;43465;50.728;4.160;2022-08-18T12:32:27;17.55;;;16.10;;
57635;SDS011;43465;50.728;4.160;2022-08-18T12:34:55;17.05;;;15.77;;
57635;SDS011;43465;50.728;4.160;2022-08-18T12:37:23;18.92;;;17.33;;
57635;SDS011;43465;50.728;4.160;2022-08-18T12:39:51;19.05;;;17.65;;
57635;SDS011;43465;50.728;4.160;2022-08-18T12:42:18;18.00;;;16.60;;
57635;SDS011;43465;50.728;4.160;2022-08-18T12:44:44;16.85;;;15.55;;
57635;SDS011;43465;50.728;4.160;2022-08-18T12:47:15;16.25;;;14.82;;
57635;SDS011;43465;50.728;4.160;2022-08-18T12:49:45;16.13;;;14.85;;
57635;SDS011;43465;50.728;4.160;2022-08-18T12:52:11;15.13;;;13.93;;
57635;SDS011;43465;50.728;4.160;2022-08-18T12:54:37;16.27;;;14.88;;
57635;SDS011;43465;50.728;4.160;2022-08-18T12:57:04;15.55;;;14.27;;
57635;SDS011;43465;50.728;4.160;2022-08-18T12:59:33;15.77;;;13.70;;
57635;SDS011;43465;50.728;4.160;2022-08-18T13:02:02;14.57;;;13.35;;
57635;SDS011;43465;50.728;4.160;2022-08-18T13:04:28;13.15;;;12.20;;
57635;SDS011;43465;50.728;4.160;2022-08-18T13:06:55;13.23;;;11.90;;
57635;SDS011;43465;50.728;4.160;2022-08-18T13:09:22;12.23;;;11.40;;
57635;SDS011;43465;50.728;4.160;2022-08-18T13:11:48;12.80;;;10.90;;
57635;SDS011;43465;50.728;4.160;2022-08-18T13:14:14;12.60;;;11.60;;
57635;SDS011;43465;50.728;4.160;2022-08-18T13:16:41;12.98;;;11.73;;
57635;SDS011;43465;50.728;4.160;2022-08-18T13:19:10;14.00;;;12.75;;
57635;SDS011;43465;50.728;4.160;2022-08-18T13:21:36;13.65;;;12.45;;
57635;SDS011;43465;50.728;4.160;2022-08-18T13:24:02;13.38;;;12.27;;
57635;SDS011;43465;50.728;4.160;2022-08-18T13:26:30;13.88;;;12.77;;
57635;SDS011;43465;50.728;4.160;2022-08-18T13:28:58;12.68;;;10.85;;
57635;SDS011;43465;50.728;4.160;2022-08-18T13:31:25;12.30;;;11.18;;
57635;SDS011;43465;50.728;4.160;2022-08-18T13:33:51;12.40;;;11.35;;
57635;SDS011;43465;50.728;4.160;2022-08-18T13:36:18;12.93;;;11.93;;
57635;SDS011;43465;50.728;4.160;2022-08-18T13:38:44;11.45;;;10.65;;
57635;SDS011;43465;50.728;4.160;2022-08-18T13:41:10;11.68;;;10.77;;
57635;SDS011;43465;50.728;4.160;2022-08-18T13:43:45;10.60;;;9.85;;
57635;SDS011;43465;50.728;4.160;2022-08-18T13:46:16;11.68;;;10.48;;
57635;SDS011;43465;50.728;4.160;2022-08-18T13:48:42;11.05;;;9.93;;
57635;SDS011;43465;50.728;4.160;2022-08-18T13:51:10;11.25;;;10.25;;
57635;SDS011;43465;50.728;4.160;2022-08-18T13:53:44;12.50;;;11.27;;
57635;SDS011;43465;50.728;4.160;2022-08-18T13:56:11;11.43;;;10.32;;
57635;SDS011;43465;50.728;4.160;2022-08-18T13:58:36;11.90;;;10.70;;
57635;SDS011;43465;50.728;4.160;2022-08-18T14:01:03;11.27;;;10.38;;
57635;SDS011;43465;50.728;4.160;2022-08-18T14:03:31;12.75;;;10.05;;
57635;SDS011;43465;50.728;4.160;2022-08-18T14:05:59;13.70;;;10.80;;
57635;SDS011;43465;50.728;4.160;2022-08-18T14:08:27;13.07;;;10.23;;
57635;SDS011;43465;50.728;4.160;2022-08-18T14:10:55;12.27;;;11.27;;
57635;SDS011;43465;50.728;4.160;2022-08-18T14:13:26;11.35;;;10.25;;
57635;SDS011;43465;50.728;4.160;2022-08-18T14:15:53;12.55;;;11.30;;
57635;SDS011;43465;50.728;4.160;2022-08-18T14:18:21;16.35;;;14.88;;
57635;SDS011;43465;50.728;4.160;2022-08-18T14:20:48;14.43;;;13.18;;
57635;SDS011;43465;50.728;4.160;2022-08-18T14:23:32;14.43;;;13.23;;
57635;SDS011;43465;50.728;4.160;2022-08-18T14:26:17;10.48;;;9.60;;
57635;SDS011;43465;50.728;4.160;2022-08-18T14:29:01;9.38;;;8.68;;
57635;SDS011;43465;50.728;4.160;2022-08-18T14:31:27;9.15;;;8.45;;
57635;SDS011;43465;50.728;4.160;2022-08-18T14:33:53;10.95;;;10.05;;
57635;SDS011;43465;50.728;4.160;2022-08-18T14:36:19;10.65;;;9.63;;
57635;SDS011;43465;50.728;4.160;2022-08-18T14:38:45;11.98;;;10.52;;
57635;SDS011;43465;50.728;4.160;2022-08-18T14:41:11;17.33;;;15.93;;
57635;SDS011;43465;50.728;4.160;2022-08-18T14:43:38;15.98;;;14.45;;
57635;SDS011;43465;50.728;4.160;2022-08-18T14:46:04;14.82;;;13.52;;
57635;SDS011;43465;50.728;4.160;2022-08-18T14:48:30;14.95;;;13.70;;
57635;SDS011;43465;50.728;4.160;2022-08-18T14:50:56;13.70;;;12.60;;
57635;SDS011;43465;50.728;4.160;2022-08-18T14:53:26;14.00;;;12.60;;
57635;SDS011;43465;50.728;4.160;2022-08-18T14:55:55;13.07;;;12.00;;
57635;SDS011;43465;50.728;4.160;2022-08-18T14:58:22;15.07;;;13.77;;
57635;SDS011;43465;50.728;4.160;2022-08-18T15:00:58;15.38;;;13.98;;
57635;SDS011;43465;50.728;4.160;2022-08-18T15:03:28;15.70;;;14.40;;
57635;SDS011;43465;50.728;4.160;2022-08-18T15:05:55;13.68;;;12.55;;
57635;SDS011;43465;50.728;4.160;2022-08-18T15:08:21;16.42;;;14.93;;
57635;SDS011;43465;50.728;4.160;2022-08-18T15:10:47;14.55;;;13.35;;
57635;SDS011;43465;50.728;4.160;2022-08-18T15:13:13;13.25;;;12.15;;
57635;SDS011;43465;50.728;4.160;2022-08-18T15:15:39;13.73;;;12.73;;
57635;SDS011;43465;50.728;4.160;2022-08-18T15:18:07;12.60;;;11.45;;
57635;SDS011;43465;50.728;4.160;2022-08-18T15:20:34;13.70;;;12.57;;
57635;SDS011;43465;50.728;4.160;2022-08-18T15:23:19;13.38;;;11.93;;
57635;SDS011;43465;50.728;4.160;2022-08-18T15:26:04;13.27;;;12.05;;
57635;SDS011;43465;50.728;4.160;2022-08-18T15:28:30;13.13;;;11.85;;
57635;SDS011;43465;50.728;4.160;2022-08-18T15:30:56;12.40;;;11.20;;
57635;SDS011;43465;50.728;4.160;2022-08-18T15:33:21;12.55;;;11.35;;
57635;SDS011;43465;50.728;4.160;2022-08-18T15:35:48;12.07;;;10.88;;
57635;SDS011;43465;50.728;4.160;2022-08-18T15:38:18;12.07;;;10.85;;
57635;SDS011;43465;50.728;4.160;2022-08-18T15:40:47;11.57;;;10.57;;
57635;SDS011;43465;50.728;4.160;2022-08-18T15:43:15;10.23;;;9.43;;
57635;SDS011;43465;50.728;4.160;2022-08-18T15:45:42;10.57;;;9.48;;
57635;SDS011;43465;50.728;4.160;2022-08-18T15:48:11;12.52;;;11.43;;
57635;SDS011;43465;50.728;4.160;2022-08-18T15:50:42;11.73;;;9.30;;
57635;SDS011;43465;50.728;4.160;2022-08-18T15:53:11;10.40;;;9.40;;
57635;SDS011;43465;50.728;4.160;2022-08-18T15:55:37;15.70;;;14.10;;
57635;SDS011;43465;50.728;4.160;2022-08-18T15:58:04;13.35;;;12.15;;
57635;SDS011;43465;50.728;4.160;2022-08-18T16:00:31;14.55;;;13.35;;
57635;SDS011;43465;50.728;4.160;2022-08-18T16:03:03;13.35;;;12.25;;
57635;SDS011;43465;50.728;4.160;2022-08-18T16:05:33;14.50;;;13.20;;
57635;SDS011;43465;50.728;4.160;2022-08-18T16:08:01;15.70;;;14.35;;
57635;SDS011;43465;50.728;4.160;2022-08-18T16:10:29;17.13;;;15.35;;
57635;SDS011;43465;50.728;4.160;2022-08-18T16:12:56;15.13;;;13.82;;
57635;SDS011;43465;50.728;4.160;2022-08-18T16:15:23;15.07;;;13.77;;
57635;SDS011;43465;50.728;4.160;2022-08-18T16:17:50;14.60;;;13.10;;
57635;SDS011;43465;50.728;4.160;2022-08-18T16:20:18;15.30;;;13.75;;
57635;SDS011;43465;50.728;4.160;2022-08-18T16:22:45;14.20;;;12.88;;
57635;SDS011;43465;50.728;4.160;2022-08-18T16:25:11;13.77;;;11.45;;
57635;SDS011;43465;50.728;4.160;2022-08-18T16:27:37;14.05;;;12.73;;
57635;SDS011;43465;50.728;4.160;2022-08-18T16:30:10;11.55;;;10.27;;
57635;SDS011;43465;50.728;4.160;2022-08-18T16:35:05;13.27;;;11.63;;
57635;SDS011;43465;50.728;4.160;2022-08-18T16:37:31;14.45;;;11.18;;
57635;SDS011;43465;50.728;4.160;2022-08-18T16:39:56;12.10;;;10.90;;
57635;SDS011;43465;50.728;4.160;2022-08-18T16:42:22;10.85;;;9.63;;
57635;SDS011;43465;50.728;4.160;2022-08-18T16:44:48;11.13;;;9.85;;
57635;SDS011;43465;50.728;4.160;2022-08-18T16:47:14;11.00;;;9.93;;
57635;SDS011;43465;50.728;4.160;2022-08-18T16:49:43;10.65;;;9.70;;
57635;SDS011;43465;50.728;4.160;2022-08-18T16:52:15;11.65;;;9.18;;
57635;SDS011;43465;50.728;4.160;2022-08-18T16:54:43;10.20;;;9.35;;
57635;SDS011;43465;50.728;4.160;2022-08-18T16:57:10;10.35;;;9.45;;
57635;SDS011;43465;50.728;4.160;2022-08-18T16:59:36;13.23;;;9.90;;
57635;SDS011;43465;50.728;4.160;2022-08-18T17:02:21;11.93;;;9.13;;
57635;SDS011;43465;50.728;4.160;2022-08-18T17:05:06;7.93;;;7.22;;
57635;SDS011;43465;50.728;4.160;2022-08-18T17:07:34;8.45;;;7.78;;
57635;SDS011;43465;50.728;4.160;2022-08-18T17:10:00;11.38;;;8.18;;
57635;SDS011;43465;50.728;4.160;2022-08-18T17:12:26;8.00;;;7.20;;
57635;SDS011;43465;50.728;4.160;2022-08-18T17:14:52;9.90;;;8.00;;
57635;SDS011;43465;50.728;4.160;2022-08-18T17:17:18;8.43;;;7.63;;
57635;SDS011;43465;50.728;4.160;2022-08-18T17:19:45;8.43;;;7.55;;
57635;SDS011;43465;50.728;4.160;2022-08-18T17:22:12;7.50;;;6.80;;
57635;SDS011;43465;50.728;4.160;2022-08-18T17:24:38;8.38;;;7.57;;
57635;SDS011;43465;50.728;4.160;2022-08-18T17:27:15;7.90;;;7.20;;
57635;SDS011;43465;50.728;4.160;2022-08-18T17:29:45;7.85;;;7.15;;
57635;SDS011;43465;50.728;4.160;2022-08-18T17:32:28;8.25;;;7.55;;
57635;SDS011;43465;50.728;4.160;2022-08-18T17:35:04;7.93;;;7.32;;
57635;SDS011;43465;50.728;4.160;2022-08-18T17:37:38;7.97;;;7.20;;
57635;SDS011;43465;50.728;4.160;2022-08-18T17:40:24;10.45;;;9.55;;